createdAt,value
2018-04-15T00:01:30.777Z,92.78
2018-04-15T00:02:30.808Z,92.78
2018-04-15T00:03:30.617Z,93.21
2018-04-15T00:04:30.650Z,92.78
2018-04-15T00:05:30.458Z,92.69
2018-04-15T00:06:30.436Z,92.59
2018-04-15T00:07:30.312Z,93.26
2018-04-15T00:08:30.339Z,93.55
2018-04-15T00:09:30.161Z,93.35
2018-04-15T00:10:30.151Z,93.64
2018-04-15T00:11:30.013Z,93.35
2018-04-15T00:12:29.956Z,93.45
2018-04-15T00:13:29.819Z,93.45
2018-04-15T00:14:29.921Z,93.45
2018-04-15T00:15:29.692Z,93.55
2018-04-15T00:16:29.724Z,93.16
2018-04-15T00:17:29.523Z,93.26
2018-04-15T00:18:29.485Z,93.84
2018-04-15T00:19:29.369Z,92.88
2018-04-15T00:20:29.514Z,93.74
2018-04-15T00:21:29.213Z,94.12
2018-04-15T00:22:29.202Z,93.45
2018-04-15T00:23:29.040Z,93.84
2018-04-15T00:24:29.014Z,93.64
2018-04-15T00:25:28.902Z,93.93
2018-04-15T00:26:28.972Z,93.74
2018-04-15T00:27:28.737Z,94.41
2018-04-15T00:28:28.742Z,94.31
2018-04-15T00:29:28.572Z,94.12
2018-04-15T00:30:28.603Z,94.31
2018-04-15T00:31:28.412Z,94.02
2018-04-15T00:32:28.464Z,94.41
2018-04-15T00:33:28.265Z,94.50
2018-04-15T00:34:28.268Z,94.70
2018-04-15T00:35:28.122Z,94.02
2018-04-15T00:36:28.063Z,94.70
2018-04-15T00:37:27.948Z,94.41
2018-04-15T00:38:27.983Z,94.70
2018-04-15T00:39:27.784Z,94.70
2018-04-15T00:40:27.828Z,94.21
2018-04-15T00:41:27.629Z,94.79
2018-04-15T00:42:27.605Z,94.07
2018-04-15T00:43:27.495Z,94.17
2018-04-15T00:44:27.514Z,94.17
2018-04-15T00:45:27.313Z,95.03
2018-04-15T00:46:27.358Z,94.36
2018-04-15T00:47:27.173Z,94.74
2018-04-15T00:48:27.167Z,94.84
2018-04-15T00:49:26.999Z,94.26
2018-04-15T00:50:27.046Z,94.55
2018-04-15T00:51:26.878Z,95.03
2018-04-15T00:52:26.842Z,94.93
2018-04-15T00:53:26.706Z,94.26
2018-04-15T00:54:26.654Z,95.03
2018-04-15T00:55:26.549Z,94.65
2018-04-15T00:56:26.611Z,94.55
2018-04-15T00:57:26.375Z,95.22
2018-04-15T00:58:26.386Z,95.03
2018-04-15T00:59:26.227Z,95.32
2018-04-15T01:00:26.180Z,94.65
2018-04-15T01:01:26.084Z,94.93
2018-04-15T01:02:26.094Z,95.03
2018-04-15T01:03:25.906Z,95.32
2018-04-15T01:04:25.900Z,95.03
2018-04-15T01:05:25.744Z,95.03
2018-04-15T01:06:25.740Z,95.32
2018-04-15T01:07:25.596Z,95.03
2018-04-15T01:08:25.622Z,95.22
2018-04-15T01:09:25.434Z,95.03
2018-04-15T01:10:25.434Z,94.74
2018-04-15T01:11:25.278Z,95.03
2018-04-15T01:12:25.265Z,95.12
2018-04-15T01:13:25.126Z,94.84
2018-04-15T01:14:25.147Z,94.93
2018-04-15T01:15:24.963Z,94.93
2018-04-15T01:16:24.968Z,95.12
2018-04-15T01:17:24.827Z,95.12
2018-04-15T01:18:24.763Z,95.03
2018-04-15T01:19:24.651Z,95.32
2018-04-15T01:20:24.665Z,94.84
2018-04-15T01:21:24.495Z,95.12
2018-04-15T01:22:24.513Z,94.74
2018-04-15T01:23:24.331Z,95.03
2018-04-15T01:24:24.391Z,95.32
2018-04-15T01:25:24.176Z,95.51
2018-04-15T01:26:24.249Z,94.84
2018-04-15T01:27:24.057Z,95.41
2018-04-15T01:28:24.030Z,95.61
2018-04-15T01:29:23.865Z,96.08
2018-04-15T01:30:23.915Z,95.32
2018-04-15T01:31:23.730Z,95.22
2018-04-15T01:32:23.773Z,95.41
2018-04-15T01:33:23.561Z,95.51
2018-04-15T01:34:23.530Z,94.74
2018-04-15T01:35:23.414Z,95.41
2018-04-15T01:36:23.447Z,95.32
2018-04-15T01:37:23.266Z,95.41
2018-04-15T01:38:23.862Z,95.17
2018-04-15T01:39:23.082Z,95.61
2018-04-15T01:40:23.072Z,94.98
2018-04-15T01:41:22.931Z,95.32
2018-04-15T01:42:22.981Z,95.03
2018-04-15T01:43:22.787Z,95.36
2018-04-15T01:44:22.778Z,95.17
2018-04-15T01:45:22.612Z,95.70
2018-04-15T01:46:22.591Z,95.94
2018-04-15T01:47:22.446Z,95.27
2018-04-15T01:48:22.438Z,95.36
2018-04-15T01:49:22.294Z,95.84
2018-04-15T01:50:22.303Z,96.03
2018-04-15T01:51:22.180Z,95.56
2018-04-15T01:52:22.122Z,95.36
2018-04-15T01:53:21.995Z,96.03
2018-04-15T01:54:21.923Z,95.46
2018-04-15T01:55:21.838Z,95.56
2018-04-15T01:56:21.840Z,95.36
2018-04-15T01:57:21.679Z,96.13
2018-04-15T01:58:21.719Z,96.13
2018-04-15T01:59:21.504Z,95.75
2018-04-15T02:00:21.551Z,95.84
2018-04-15T02:01:21.348Z,95.94
2018-04-15T02:02:21.365Z,96.03
2018-04-15T02:03:21.224Z,95.94
2018-04-15T02:04:21.174Z,96.03
2018-04-15T02:05:21.034Z,95.75
2018-04-15T02:06:21.084Z,96.03
2018-04-15T02:07:20.879Z,96.22
2018-04-15T02:08:20.925Z,96.22
2018-04-15T02:09:20.727Z,96.32
2018-04-15T02:10:20.700Z,96.42
2018-04-15T02:11:20.596Z,96.22
2018-04-15T02:12:20.611Z,96.42
2018-04-15T02:13:20.428Z,96.70
2018-04-15T02:14:20.446Z,96.51
2018-04-15T02:15:20.246Z,96.27
2018-04-15T02:16:20.225Z,96.42
2018-04-15T02:17:20.088Z,96.37
2018-04-15T02:18:20.063Z,96.27
2018-04-15T02:19:19.936Z,96.66
2018-04-15T02:20:19.956Z,96.32
2018-04-15T02:21:19.770Z,96.22
2018-04-15T02:22:19.773Z,95.84
2018-04-15T02:23:19.637Z,95.94
2018-04-15T02:24:19.604Z,96.22
2018-04-15T02:25:19.476Z,96.42
2018-04-15T02:26:19.486Z,95.75
2018-04-15T02:27:19.302Z,95.84
2018-04-15T02:28:19.295Z,95.65
2018-04-15T02:29:19.165Z,96.32
2018-04-15T02:30:19.197Z,95.94
2018-04-15T02:31:19.012Z,96.22
2018-04-15T02:32:19.005Z,96.32
2018-04-15T02:33:18.829Z,96.37
2018-04-15T02:34:18.878Z,96.37
2018-04-15T02:35:18.684Z,96.27
2018-04-15T02:36:18.728Z,96.75
2018-04-15T02:37:18.511Z,96.66
2018-04-15T02:38:18.545Z,96.75
2018-04-15T02:39:18.378Z,96.56
2018-04-15T02:40:18.339Z,97.13
2018-04-15T02:41:18.199Z,97.03
2018-04-15T02:42:18.255Z,97.23
2018-04-15T02:43:18.052Z,97.13
2018-04-15T02:44:18.092Z,97.13
2018-04-15T02:45:17.881Z,97.13
2018-04-15T02:46:17.872Z,96.94
2018-04-15T02:47:17.842Z,96.94
2018-04-15T02:48:17.676Z,97.13
2018-04-15T02:49:17.563Z,97.61
2018-04-15T02:50:17.682Z,97.13
2018-04-15T02:51:17.407Z,98.08
2018-04-15T02:52:17.403Z,97.89
2018-04-15T02:53:17.249Z,97.80
2018-04-15T02:54:17.200Z,97.52
2018-04-15T02:55:17.103Z,97.52
2018-04-15T02:56:17.115Z,97.32
2018-04-15T02:57:16.930Z,97.13
2018-04-15T02:58:16.934Z,97.32
2018-04-15T02:59:16.779Z,98.08
2018-04-15T03:00:16.763Z,97.89
2018-04-15T03:01:16.647Z,97.80
2018-04-15T03:02:16.647Z,98.08
2018-04-15T03:03:16.452Z,98.08
2018-04-15T03:04:16.463Z,97.89
2018-04-15T03:05:16.324Z,97.89
2018-04-15T03:06:16.252Z,98.08
2018-04-15T03:07:16.156Z,98.28
2018-04-15T03:09:58.314Z,97.61
2018-04-15T03:10:58.297Z,97.80
2018-04-15T03:11:58.168Z,97.71
2018-04-15T03:12:58.195Z,97.80
2018-04-15T03:13:58.015Z,98.08
2018-04-15T03:14:57.984Z,97.61
2018-04-15T03:15:57.857Z,98.08
2018-04-15T03:16:57.798Z,97.99
2018-04-15T03:17:57.680Z,98.18
2018-04-15T03:18:57.713Z,98.18
2018-04-15T03:19:57.574Z,98.37
2018-04-15T03:20:57.551Z,98.08
2018-04-15T03:21:57.364Z,98.08
2018-04-15T03:22:57.892Z,97.71
2018-04-15T03:23:57.201Z,97.23
2018-04-15T03:24:57.238Z,97.80
2018-04-15T03:25:57.063Z,97.42
2018-04-15T03:26:57.039Z,97.71
2018-04-15T03:27:56.891Z,97.89
2018-04-15T03:28:56.854Z,97.61
2018-04-15T03:29:56.754Z,97.52
2018-04-15T03:30:56.796Z,97.80
2018-04-15T03:31:56.572Z,97.80
2018-04-15T03:32:56.576Z,97.89
2018-04-15T03:33:56.413Z,97.71
2018-04-15T03:34:56.384Z,97.71
2018-04-15T03:35:56.255Z,97.23
2018-04-15T03:36:56.325Z,97.42
2018-04-15T03:37:56.092Z,97.32
2018-04-15T03:38:56.102Z,97.32
2018-04-15T03:39:55.939Z,97.99
2018-04-15T03:40:55.937Z,98.37
2018-04-15T03:41:55.775Z,98.18
2018-04-15T03:42:55.809Z,97.99
2018-04-15T03:43:55.630Z,97.42
2018-04-15T03:44:55.625Z,97.99
2018-04-15T03:45:55.590Z,97.89
2018-04-15T03:46:55.432Z,97.52
2018-04-15T03:47:55.317Z,97.71
2018-04-15T03:48:55.339Z,97.80
2018-04-15T03:49:55.152Z,97.89
2018-04-15T03:50:55.161Z,97.71
2018-04-15T03:51:54.986Z,97.80
2018-04-15T03:52:55.012Z,97.71
2018-04-15T03:53:54.836Z,97.71
2018-04-15T03:54:54.878Z,97.61
2018-04-15T03:55:54.699Z,97.89
2018-04-15T03:56:54.679Z,98.08
2018-04-15T03:57:54.538Z,97.89
2018-04-15T03:58:54.555Z,98.18
2018-04-15T03:59:54.352Z,98.37
2018-04-15T04:00:54.399Z,98.32
2018-04-15T04:01:54.200Z,98.37
2018-04-15T04:02:54.248Z,98.66
2018-04-15T04:03:54.054Z,99.14
2018-04-15T04:04:54.021Z,99.04
2018-04-15T04:05:53.889Z,99.14
2018-04-15T04:06:53.871Z,98.85
2018-04-15T04:07:53.727Z,98.94
2018-04-15T04:08:53.745Z,98.57
2018-04-15T04:09:53.573Z,98.75
2018-04-15T04:10:53.545Z,98.94
2018-04-15T04:11:53.413Z,99.04
2018-04-15T04:12:53.397Z,99.52
2018-04-15T04:13:53.244Z,99.23
2018-04-15T04:14:53.262Z,99.52
2018-04-15T04:15:53.118Z,99.43
2018-04-15T04:16:53.075Z,99.14
2018-04-15T04:17:52.949Z,99.33
2018-04-15T04:18:53.014Z,99.43
2018-04-15T04:19:52.774Z,99.62
2018-04-15T04:20:52.793Z,99.52
2018-04-15T04:21:52.650Z,99.23
2018-04-15T04:22:52.604Z,99.71
2018-04-15T04:23:52.481Z,99.62
2018-04-15T04:24:52.426Z,99.43
2018-04-15T04:25:52.298Z,99.23
2018-04-15T04:26:52.317Z,99.43
2018-04-15T04:27:52.145Z,99.43
2018-04-15T04:28:52.155Z,99.28
2018-04-15T04:29:51.993Z,99.85
2018-04-15T04:30:51.941Z,99.62
2018-04-15T04:31:51.920Z,99.90
2018-04-15T04:32:51.854Z,99.62
2018-04-15T04:33:51.679Z,99.62
2018-04-15T04:34:51.705Z,99.99
2018-04-15T04:35:51.508Z,99.71
2018-04-15T04:36:51.461Z,99.90
2018-04-15T04:37:51.350Z,99.90
2018-04-15T04:38:51.377Z,99.99
2018-04-15T04:39:51.197Z,99.99
2018-04-15T04:40:51.182Z,99.99
2018-04-15T04:41:51.030Z,99.99
2018-04-15T04:42:50.997Z,99.99
2018-04-15T04:43:50.875Z,99.99
2018-04-15T04:44:50.933Z,99.99
2018-04-15T04:45:50.711Z,99.99
2018-04-15T04:46:50.718Z,99.99
2018-04-15T04:47:50.552Z,99.99
2018-04-15T04:48:50.518Z,99.99
2018-04-15T04:49:50.412Z,99.99
2018-04-15T04:50:50.459Z,99.99
2018-04-15T04:51:50.282Z,99.99
2018-04-15T04:52:50.236Z,99.99
2018-04-15T04:53:50.083Z,99.99
2018-04-15T04:54:50.180Z,99.99
2018-04-15T04:55:49.915Z,99.99
2018-04-15T04:56:49.957Z,99.99
2018-04-15T04:57:49.775Z,99.99
2018-04-15T04:58:49.766Z,99.99
2018-04-15T04:59:49.625Z,99.99
2018-04-15T05:00:49.603Z,99.99
2018-04-15T05:01:49.446Z,99.99
2018-04-15T05:02:49.485Z,99.99
2018-04-15T05:03:49.285Z,99.99
2018-04-15T05:04:49.296Z,99.99
2018-04-15T05:05:49.155Z,99.99
2018-04-15T05:06:49.099Z,99.99
2018-04-15T05:07:48.970Z,99.99
2018-04-15T05:08:49.015Z,99.99
2018-04-15T05:09:48.810Z,99.99
2018-04-15T05:10:48.857Z,99.99
2018-04-15T05:11:48.649Z,99.99
2018-04-15T05:12:48.637Z,99.95
2018-04-15T05:13:48.495Z,99.99
2018-04-15T05:14:48.544Z,99.99
2018-04-15T05:15:48.361Z,99.99
2018-04-15T05:16:48.344Z,99.99
2018-04-15T05:17:48.171Z,99.99
2018-04-15T05:18:48.169Z,99.95
2018-04-15T05:19:48.015Z,99.99
2018-04-15T05:20:48.307Z,99.99
2018-04-15T05:21:47.866Z,99.99
2018-04-15T05:22:47.881Z,99.99
2018-04-15T05:23:47.697Z,99.99
2018-04-15T05:24:47.699Z,99.99
2018-04-15T05:25:47.569Z,99.99
2018-04-15T05:26:47.497Z,99.99
2018-04-15T05:27:47.387Z,99.99
2018-04-15T05:28:47.407Z,99.99
2018-04-15T05:29:47.223Z,99.99
2018-04-15T05:30:47.257Z,99.99
2018-04-15T05:31:47.082Z,99.99
2018-04-15T05:32:47.029Z,99.99
2018-04-15T05:33:47.025Z,99.99
2018-04-15T05:34:46.930Z,99.99
2018-04-15T05:35:46.757Z,99.99
2018-04-15T05:36:46.793Z,99.99
2018-04-15T05:37:46.613Z,99.99
2018-04-15T05:38:46.959Z,99.99
2018-04-15T05:39:46.436Z,99.99
2018-04-15T05:40:46.461Z,99.99
2018-04-15T05:41:46.289Z,99.99
2018-04-15T05:42:46.273Z,99.99
2018-04-15T05:43:46.113Z,99.99
2018-04-15T05:44:46.077Z,99.99
2018-04-15T05:45:45.965Z,99.99
2018-04-15T05:46:46.030Z,99.99
2018-04-15T05:47:45.794Z,99.99
2018-04-15T05:48:45.787Z,99.99
2018-04-15T05:49:45.634Z,99.99
2018-04-15T05:50:45.614Z,99.99
2018-04-15T05:51:45.500Z,99.99
2018-04-15T05:52:45.518Z,99.99
2018-04-15T05:53:45.365Z,99.99
2018-04-15T05:54:45.331Z,99.99
2018-04-15T05:55:45.155Z,99.99
2018-04-15T05:56:45.202Z,99.99
2018-04-15T05:57:45.015Z,99.99
2018-04-15T05:58:45.047Z,99.99
2018-04-15T05:59:44.856Z,99.99
2018-04-15T06:00:44.855Z,99.99
2018-04-15T06:01:44.678Z,99.99
2018-04-15T06:02:44.706Z,99.99
2018-04-15T06:03:44.534Z,99.99
2018-04-15T06:04:44.574Z,99.99
2018-04-15T06:05:44.369Z,99.99
2018-04-15T06:06:44.439Z,99.99
2018-04-15T06:07:44.225Z,99.99
2018-04-15T06:08:44.200Z,99.99
2018-04-15T06:09:44.146Z,99.99
2018-04-15T06:10:44.022Z,99.99
2018-04-15T06:11:43.889Z,99.99
2018-04-15T06:12:44.879Z,99.99
2018-04-15T06:13:43.769Z,99.99
2018-04-15T06:14:43.711Z,99.99
2018-04-15T06:15:43.566Z,99.99
2018-04-15T06:16:43.527Z,99.99
2018-04-15T06:17:43.429Z,99.99
2018-04-15T06:18:43.434Z,99.99
2018-04-15T06:19:43.253Z,99.99
2018-04-15T06:20:43.250Z,99.99
2018-04-15T06:21:43.106Z,99.99
2018-04-15T06:22:43.080Z,99.99
2018-04-15T06:23:42.937Z,99.99
2018-04-15T06:24:42.964Z,99.99
2018-04-15T06:25:42.785Z,99.99
2018-04-15T06:26:42.793Z,99.99
2018-04-15T06:27:42.633Z,99.99
2018-04-15T06:28:42.608Z,99.99
2018-04-15T06:29:42.464Z,99.99
2018-04-15T06:30:42.495Z,99.99
2018-04-15T06:31:42.297Z,99.99
2018-04-15T06:32:42.306Z,99.99
2018-04-15T06:33:42.184Z,99.99
2018-04-15T06:34:42.118Z,99.99
2018-04-15T06:35:41.989Z,99.99
2018-04-15T06:36:42.070Z,99.99
2018-04-15T06:37:41.821Z,99.99
2018-04-15T06:38:41.829Z,99.99
2018-04-15T06:39:41.685Z,99.99
2018-04-15T06:40:41.632Z,99.99
2018-04-15T06:41:41.507Z,99.99
2018-04-15T06:42:41.591Z,99.99
2018-04-15T06:43:41.400Z,99.99
2018-04-15T06:44:41.358Z,99.99
2018-04-15T06:45:41.193Z,99.99
2018-04-15T06:46:41.159Z,99.99
2018-04-15T06:47:41.064Z,99.99
2018-04-15T06:48:41.111Z,99.99
2018-04-15T06:49:40.887Z,99.99
2018-04-15T06:50:40.880Z,99.99
2018-04-15T06:51:40.711Z,99.99
2018-04-15T06:52:40.689Z,99.99
2018-04-15T06:53:40.584Z,99.99
2018-04-15T06:54:40.605Z,99.99
2018-04-15T06:55:40.493Z,99.99
2018-04-15T06:56:40.410Z,99.80
2018-04-15T06:57:40.236Z,99.99
2018-04-15T06:58:40.225Z,99.99
2018-04-15T06:59:40.117Z,99.99
2018-04-15T07:00:40.135Z,99.99
2018-04-15T07:01:39.927Z,99.99
2018-04-15T07:02:39.944Z,99.99
2018-04-15T07:03:39.761Z,99.99
2018-04-15T07:04:39.798Z,99.95
2018-04-15T07:05:39.707Z,99.99
2018-04-15T07:06:39.568Z,99.99
2018-04-15T07:07:39.446Z,99.99
2018-04-15T07:08:39.502Z,99.99
2018-04-15T07:09:39.341Z,99.99
2018-04-15T07:10:39.268Z,99.99
2018-04-15T07:11:39.150Z,99.99
2018-04-15T07:12:39.078Z,99.99
2018-04-15T07:13:38.975Z,99.99
2018-04-15T07:14:39.023Z,99.99
2018-04-15T07:15:38.819Z,99.99
2018-04-15T07:16:38.802Z,99.99
2018-04-15T07:17:38.649Z,99.99
2018-04-15T07:18:38.613Z,99.99
2018-04-15T07:19:38.515Z,99.95
2018-04-15T07:20:38.565Z,99.99
2018-04-15T07:21:38.347Z,99.99
2018-04-15T07:22:38.319Z,99.99
2018-04-15T07:23:38.194Z,99.99
2018-04-15T07:24:38.179Z,99.99
2018-04-15T07:25:38.029Z,99.99
2018-04-15T07:26:38.053Z,99.99
2018-04-15T07:27:37.863Z,99.72
2018-04-15T07:28:37.856Z,99.81
2018-04-15T07:29:37.707Z,99.43
2018-04-15T07:30:38.109Z,99.99
2018-04-15T07:31:37.575Z,99.24
2018-04-15T07:32:37.578Z,96.66
2018-04-15T07:33:37.402Z,96.75
2018-04-15T07:34:37.428Z,96.61
2018-04-15T07:35:37.257Z,97.14
2018-04-15T07:36:37.317Z,97.61
2018-04-15T07:37:37.092Z,98.00
2018-04-15T07:38:37.101Z,97.61
2018-04-15T07:39:36.929Z,96.85
2018-04-15T07:40:36.939Z,96.66
2018-04-15T07:41:36.883Z,96.32
2018-04-15T07:42:36.826Z,98.19
2018-04-15T07:43:36.636Z,96.47
2018-04-15T07:44:37.146Z,98.48
2018-04-15T07:45:36.510Z,95.60
2018-04-15T07:46:36.468Z,93.92
2018-04-15T07:47:36.306Z,94.01
2018-04-15T07:48:36.348Z,91.99
2018-04-15T07:49:36.154Z,90.16
2018-04-15T07:50:36.164Z,88.71
2018-04-15T07:51:36.045Z,87.41
2018-04-15T07:52:35.972Z,88.29
2018-04-15T07:53:35.838Z,90.84
2018-04-15T07:54:35.879Z,88.53
2018-04-15T07:55:36.024Z,88.67
2018-04-15T07:56:35.715Z,87.17
2018-04-15T07:57:35.524Z,86.98
2018-04-15T07:58:35.504Z,86.63
2018-04-15T07:59:35.383Z,85.43
2018-04-15T08:00:35.404Z,85.98
2018-04-15T08:01:35.244Z,87.43
2018-04-15T08:02:35.284Z,88.04
2018-04-15T08:03:35.066Z,85.97
2018-04-15T08:04:35.125Z,85.87
2018-04-15T08:05:34.928Z,85.98
2018-04-15T08:06:34.933Z,86.56
2018-04-15T08:07:34.849Z,87.18
2018-04-15T08:08:34.745Z,86.01
2018-04-15T08:09:34.654Z,86.94
2018-04-15T08:10:34.705Z,88.87
2018-04-15T08:11:34.555Z,88.73
2018-04-15T08:12:34.471Z,90.51
2018-04-15T08:13:34.349Z,90.70
2018-04-15T08:14:34.369Z,89.64
2018-04-15T08:15:34.189Z,86.85
2018-04-15T08:16:34.211Z,86.93
2018-04-15T08:17:34.026Z,86.04
2018-04-15T08:18:34.017Z,89.64
2018-04-15T08:19:33.875Z,89.64
2018-04-15T08:20:33.911Z,89.54
2018-04-15T08:21:33.763Z,90.18
2018-04-15T08:22:33.743Z,91.76
2018-04-15T08:23:33.665Z,90.56
2018-04-15T08:24:33.645Z,90.70
2018-04-15T08:25:33.455Z,88.78
2018-04-15T08:26:33.501Z,88.35
2018-04-15T08:27:33.265Z,89.89
2018-04-15T08:28:33.238Z,90.71
2018-04-15T08:29:33.129Z,92.15
2018-04-15T08:30:33.156Z,90.37
2018-04-15T08:31:32.985Z,87.33
2018-04-15T08:32:32.996Z,86.85
2018-04-15T08:33:32.819Z,84.86
2018-04-15T08:34:32.863Z,81.09
2018-04-15T08:35:32.679Z,78.96
2018-04-15T08:36:32.678Z,78.34
2018-04-15T08:37:32.627Z,78.94
2018-04-15T08:38:32.494Z,77.61
2018-04-15T08:39:32.386Z,78.40
2018-04-15T08:40:32.402Z,83.34
2018-04-15T08:41:32.215Z,85.51
2018-04-15T08:42:32.243Z,86.56
2018-04-15T08:43:32.079Z,85.98
2018-04-15T08:44:32.194Z,86.18
2018-04-15T08:45:31.922Z,82.29
2018-04-15T08:46:31.922Z,80.29
2018-04-15T08:47:31.797Z,81.79
2018-04-15T08:48:31.797Z,81.99
2018-04-15T08:49:31.673Z,82.60
2018-04-15T08:50:31.662Z,79.08
2018-04-15T08:51:31.482Z,76.23
2018-04-15T08:52:31.525Z,76.63
2018-04-15T08:53:31.353Z,80.10
2018-04-15T08:54:31.429Z,84.01
2018-04-15T08:55:31.177Z,81.83
2018-04-15T08:56:31.175Z,78.44
2018-04-15T08:57:31.038Z,78.02
2018-04-15T08:58:31.084Z,79.96
2018-04-15T08:59:30.908Z,78.69
2018-04-15T09:00:30.893Z,76.90
2018-04-15T09:01:30.752Z,73.57
2018-04-15T09:02:30.812Z,73.47
2018-04-15T09:03:30.615Z,74.97
2018-04-15T09:04:30.640Z,73.54
2018-04-15T09:05:30.452Z,72.48
2018-04-15T09:06:30.408Z,71.16
2018-04-15T09:07:30.309Z,70.29
2018-04-15T09:08:30.340Z,71.12
2018-04-15T09:09:30.191Z,72.54
2018-04-15T09:10:30.206Z,70.78
2018-04-15T09:11:30.016Z,66.72
2018-04-15T09:12:30.043Z,68.26
2018-04-15T09:13:29.899Z,67.08
2018-04-15T09:14:29.914Z,66.78
2018-04-15T09:15:29.768Z,65.88
2018-04-15T09:16:29.758Z,64.98
2018-04-15T09:17:29.585Z,65.59
2018-04-15T09:18:29.576Z,66.11
2018-04-15T09:19:29.460Z,67.17
2018-04-15T09:20:29.773Z,69.07
2018-04-15T09:21:29.329Z,72.49
2018-04-15T09:22:29.290Z,80.46
2018-04-15T09:23:29.174Z,77.11
2018-04-15T09:24:29.214Z,74.24
2018-04-15T09:25:29.047Z,70.84
2018-04-15T09:26:29.047Z,68.26
2018-04-15T09:27:28.898Z,66.40
2018-04-15T09:28:28.913Z,64.40
2018-04-15T09:29:28.762Z,64.86
2018-04-15T09:30:28.742Z,67.65
2018-04-15T09:31:28.644Z,68.39
2018-04-15T09:32:28.659Z,69.39
2018-04-15T09:33:28.466Z,67.88
2018-04-15T09:34:28.445Z,67.55
2018-04-15T09:35:28.344Z,67.94
2018-04-15T09:36:28.401Z,68.36
2018-04-15T09:37:28.235Z,65.95
2018-04-15T09:38:28.172Z,63.95
2018-04-15T09:39:28.045Z,62.07
2018-04-15T09:40:28.173Z,62.63
2018-04-15T09:41:27.937Z,65.91
2018-04-15T09:42:27.929Z,68.23
2018-04-15T09:43:27.815Z,65.78
2018-04-15T09:44:27.796Z,64.40
2018-04-15T09:45:27.637Z,64.43
2018-04-15T09:46:27.678Z,62.56
2018-04-15T09:47:27.516Z,63.21
2018-04-15T09:48:27.532Z,64.66
2018-04-15T09:49:27.355Z,68.45
2018-04-15T09:50:27.315Z,69.93
2018-04-15T09:51:27.223Z,67.46
2018-04-15T09:52:27.272Z,64.82
2018-04-15T09:53:27.084Z,63.95
2018-04-15T09:54:27.037Z,63.05
2018-04-15T09:55:26.939Z,62.85
2018-04-15T09:56:26.965Z,64.01
2018-04-15T09:57:26.843Z,64.47
2018-04-15T09:58:26.868Z,66.75
2018-04-15T09:59:27.505Z,68.23
2018-04-15T10:00:26.679Z,67.40
2018-04-15T10:01:26.539Z,67.27
2018-04-15T10:02:26.632Z,66.01
2018-04-15T10:03:26.395Z,66.75
2018-04-15T10:04:26.404Z,67.55
2018-04-15T10:05:26.265Z,67.33
2018-04-15T10:06:26.308Z,70.06
2018-04-15T10:07:26.163Z,71.98
2018-04-15T10:08:26.110Z,68.23
2018-04-15T10:09:25.986Z,68.68
2018-04-15T10:10:26.032Z,66.72
2018-04-15T10:11:25.853Z,67.24
2018-04-15T10:12:25.868Z,67.20
2018-04-15T10:13:25.736Z,68.77
2018-04-15T10:14:25.737Z,70.70
2018-04-15T10:15:25.562Z,68.26
2018-04-15T10:16:25.555Z,65.63
2018-04-15T10:17:25.425Z,65.11
2018-04-15T10:18:25.514Z,65.98
2018-04-15T10:19:25.331Z,65.20
2018-04-15T10:20:25.277Z,63.76
2018-04-15T10:21:25.149Z,63.56
2018-04-15T10:22:25.183Z,63.63
2018-04-15T10:23:25.013Z,63.18
2018-04-15T10:24:24.993Z,63.18
2018-04-15T10:25:24.947Z,62.92
2018-04-15T10:26:24.907Z,60.98
2018-04-15T10:27:24.737Z,61.01
2018-04-15T10:28:24.716Z,60.82
2018-04-15T10:29:24.626Z,60.14
2018-04-15T10:30:24.619Z,59.69
2018-04-15T10:31:24.484Z,58.00
2018-04-15T10:32:24.533Z,58.16
2018-04-15T10:33:24.332Z,57.19
2018-04-15T10:34:24.423Z,55.87
2018-04-15T10:35:24.189Z,57.40
2018-04-15T10:36:24.285Z,62.08
2018-04-15T10:37:24.067Z,65.11
2018-04-15T10:40:05.956Z,67.40
2018-04-15T10:41:06.077Z,67.40
2018-04-15T10:42:05.812Z,65.59
2018-04-15T11:08:28.384Z,64.21
2018-04-15T11:09:28.269Z,65.24
2018-04-15T11:10:28.265Z,62.50
2018-04-15T11:11:28.139Z,61.11
2018-04-15T11:12:28.172Z,63.08
2018-04-15T11:13:28.007Z,65.53
2018-04-15T11:14:28.018Z,67.20
2018-04-15T11:15:27.852Z,67.40
2018-04-15T11:16:27.927Z,65.66
2018-04-15T11:17:27.721Z,63.11
2018-04-15T11:18:27.720Z,61.79
2018-04-15T11:19:27.569Z,61.11
2018-04-15T11:22:09.491Z,60.04
2018-04-15T11:24:51.527Z,56.67
2018-04-15T11:27:33.501Z,69.70
2018-04-15T11:28:33.502Z,70.76
2018-04-15T11:29:33.334Z,71.20
2018-04-15T11:30:33.310Z,71.14
2018-04-15T11:34:13.497Z,63.21
2018-04-15T11:35:13.478Z,61.63
2018-04-15T11:36:13.364Z,61.24
2018-04-15T11:40:10.033Z,58.18
2018-04-15T11:41:09.901Z,62.60
2018-04-15T11:42:09.975Z,63.02
2018-04-15T11:43:09.787Z,62.76
2018-04-15T11:44:09.761Z,60.79
2018-04-15T11:45:09.632Z,61.57
2018-04-15T11:46:09.658Z,62.63
2018-04-15T11:47:09.513Z,62.05
2018-04-15T11:48:09.489Z,61.28
2018-04-15T11:49:09.355Z,60.47
2018-04-15T11:50:09.378Z,59.92
2018-04-15T11:51:09.233Z,58.72
2018-04-15T11:52:09.291Z,57.50
2018-04-15T11:53:09.101Z,58.56
2018-04-15T11:54:09.110Z,57.98
2018-04-15T11:55:08.975Z,56.56
2018-04-15T11:56:09.011Z,54.62
2018-04-15T11:57:08.812Z,53.39
2018-04-15T11:58:08.871Z,53.39
2018-04-15T11:59:08.696Z,55.04
2018-04-15T12:00:08.730Z,53.77
2018-04-15T12:01:08.551Z,55.10
2018-04-15T12:02:08.539Z,55.53
2018-04-15T12:03:08.446Z,57.44
2018-04-15T12:04:09.411Z,59.80
2018-04-15T12:05:08.269Z,60.61
2018-04-15T12:06:08.259Z,61.31
2018-04-15T12:07:08.164Z,61.19
2018-04-15T12:08:08.298Z,63.73
2018-04-15T12:09:07.997Z,66.91
2018-04-15T12:10:07.992Z,69.38
2018-04-15T12:11:07.870Z,68.19
2018-04-15T12:12:07.894Z,67.23
2018-04-15T12:13:07.747Z,67.13
2018-04-15T12:14:07.720Z,68.26
2018-04-15T12:15:07.615Z,69.67
2018-04-15T12:16:07.606Z,70.72
2018-04-15T12:17:07.426Z,70.76
2018-04-15T12:18:07.423Z,70.82
2018-04-15T12:19:07.297Z,72.52
2018-04-15T12:20:07.319Z,72.80
2018-04-15T12:21:07.146Z,72.32
2018-04-15T12:22:07.127Z,71.94
2018-04-15T12:23:06.986Z,69.95
2018-04-15T12:24:06.977Z,70.98
2018-04-15T12:25:06.839Z,72.32
2018-04-15T12:26:06.776Z,71.01
2018-04-15T12:27:06.706Z,70.53
2018-04-15T12:28:06.664Z,70.82
2018-04-15T12:29:06.559Z,71.34
2018-04-15T12:30:06.580Z,70.15
2018-04-15T12:31:06.385Z,70.11
2018-04-15T12:32:06.388Z,70.53
2018-04-15T12:33:06.238Z,70.37
2018-04-15T12:34:06.230Z,68.84
2018-04-15T12:35:06.117Z,69.51
2018-04-15T12:36:06.105Z,69.67
2018-04-15T12:37:06.027Z,70.62
2018-04-15T12:38:05.873Z,70.72
2018-04-15T12:39:05.791Z,70.56
2018-04-15T12:40:05.841Z,69.02
2018-04-15T12:41:05.641Z,69.09
2018-04-15T12:42:05.620Z,68.99
2018-04-15T12:43:05.488Z,69.09
2018-04-15T12:44:05.561Z,68.99
2018-04-15T12:45:05.368Z,68.84
2018-04-15T12:46:05.277Z,68.77
2018-04-15T12:47:05.192Z,68.90
2018-04-15T12:48:05.149Z,67.23
2018-04-15T12:49:05.049Z,67.00
2018-04-15T12:50:05.095Z,67.26
2018-04-15T12:51:04.885Z,68.22
2018-04-15T12:52:04.870Z,67.58
2018-04-15T12:53:04.748Z,67.49
2018-04-15T12:54:04.786Z,67.10
2018-04-15T12:55:04.603Z,67.58
2018-04-15T12:57:46.541Z,68.76
2018-04-15T12:58:46.491Z,69.63
2018-04-15T12:59:46.411Z,70.50
2018-04-15T13:00:46.584Z,70.40
2018-04-15T13:01:46.214Z,70.59
2018-04-15T13:02:46.317Z,69.95
2018-04-15T13:03:46.077Z,68.70
2018-04-15T13:04:46.125Z,68.70
2018-04-15T13:05:45.929Z,68.51
2018-04-15T13:06:45.972Z,67.55
2018-04-15T13:07:45.740Z,67.10
2018-04-15T13:08:45.755Z,67.39
2018-04-15T13:09:45.599Z,67.00
2018-04-15T13:10:45.681Z,67.33
2018-04-15T13:11:45.470Z,66.27
2018-04-15T13:12:45.567Z,65.78
2018-04-15T13:13:45.283Z,65.30
2018-04-15T13:14:45.222Z,65.69
2018-04-15T13:15:45.138Z,65.40
2018-04-15T13:16:45.214Z,66.17
2018-04-15T13:17:45.047Z,66.71
2018-04-15T13:20:27.019Z,67.77
2018-04-15T13:21:27.006Z,67.49
2018-04-15T13:22:26.901Z,68.26
2018-04-15T13:23:26.896Z,68.54
2018-04-15T13:24:26.701Z,68.06
2018-04-15T13:25:26.707Z,68.16
2018-04-15T13:26:26.562Z,68.35
2018-04-15T13:27:26.654Z,68.84
2018-04-15T13:28:26.432Z,69.38
2018-04-15T13:29:26.422Z,68.41
2018-04-15T13:30:26.293Z,68.32
2018-04-15T13:31:26.237Z,68.35
2018-04-15T13:32:26.119Z,67.49
2018-04-15T13:33:26.173Z,67.29
2018-04-15T13:34:25.974Z,67.97
2018-04-15T13:35:25.951Z,67.58